createdAt,value
2023-04-02T00:00:04.000Z,0
2023-04-02T00:01:20.000Z,0
2023-04-02T00:02:36.000Z,0
2023-04-02T00:03:52.000Z,0
2023-04-02T00:05:08.000Z,0
2023-04-02T00:06:24.000Z,0
2023-04-02T00:07:40.000Z,0
2023-04-02T00:08:56.000Z,0
2023-04-02T00:10:12.000Z,0
2023-04-02T00:11:28.000Z,0
2023-04-02T00:12:44.000Z,0
2023-04-02T00:14:00.000Z,0
2023-04-02T00:15:16.000Z,0
2023-04-02T00:16:32.000Z,0
2023-04-02T00:17:49.000Z,0
2023-04-02T00:19:05.000Z,0
2023-04-02T00:20:21.000Z,0
2023-04-02T00:21:37.000Z,0
2023-04-02T00:22:53.000Z,0
2023-04-02T00:24:09.000Z,0
2023-04-02T00:25:24.000Z,0
2023-04-02T00:26:40.000Z,0
2023-04-02T00:27:57.000Z,0
2023-04-02T00:29:13.000Z,0
2023-04-02T00:30:29.000Z,0
2023-04-02T00:31:45.000Z,0
2023-04-02T00:33:01.000Z,0
2023-04-02T00:34:17.000Z,0
2023-04-02T00:35:33.000Z,0
2023-04-02T00:36:50.000Z,0
2023-04-02T00:38:06.000Z,0
2023-04-02T00:39:22.000Z,0
2023-04-02T00:40:38.000Z,0
2023-04-02T00:41:53.000Z,0
2023-04-02T00:43:08.000Z,0
2023-04-02T00:44:23.000Z,0
2023-04-02T00:45:40.000Z,0
2023-04-02T00:46:56.000Z,0
2023-04-02T00:48:11.000Z,0
2023-04-02T00:49:26.000Z,0
2023-04-02T00:50:42.000Z,0
2023-04-02T00:51:58.000Z,0
2023-04-02T00:53:14.000Z,0
2023-04-02T00:54:30.000Z,0
2023-04-02T00:55:47.000Z,0
2023-04-02T00:57:03.000Z,0
2023-04-02T00:58:19.000Z,0
2023-04-02T00:59:35.000Z,0
2023-04-02T01:00:51.000Z,0
2023-04-02T01:02:07.000Z,0
2023-04-02T01:03:23.000Z,0
2023-04-02T01:04:40.000Z,0
2023-04-02T01:05:55.000Z,0
2023-04-02T01:07:11.000Z,0
2023-04-02T01:08:27.000Z,0
2023-04-02T01:09:43.000Z,0
2023-04-02T01:10:59.000Z,0
2023-04-02T01:12:15.000Z,0
2023-04-02T01:13:31.000Z,0
2023-04-02T01:14:48.000Z,0
2023-04-02T01:16:04.000Z,0
2023-04-02T01:17:20.000Z,0
2023-04-02T01:18:36.000Z,0
2023-04-02T01:19:52.000Z,0
2023-04-02T01:21:08.000Z,0
2023-04-02T01:22:23.000Z,0
2023-04-02T01:23:40.000Z,0
2023-04-02T01:24:56.000Z,0
2023-04-02T01:26:12.000Z,0
2023-04-02T01:27:28.000Z,0
2023-04-02T01:28:44.000Z,0
2023-04-02T01:30:00.000Z,0
2023-04-02T01:31:16.000Z,0
2023-04-02T01:32:32.000Z,0
2023-04-02T01:33:49.000Z,0
2023-04-02T01:35:05.000Z,0
2023-04-02T01:36:21.000Z,0
2023-04-02T01:37:37.000Z,0
2023-04-02T01:38:52.000Z,0
2023-04-02T01:40:08.000Z,0
2023-04-02T01:41:24.000Z,0
2023-04-02T01:42:41.000Z,0
2023-04-02T01:43:57.000Z,0
2023-04-02T01:45:13.000Z,0
2023-04-02T01:46:29.000Z,0
2023-04-02T01:47:45.000Z,0
2023-04-02T01:49:01.000Z,0
2023-04-02T01:50:17.000Z,0
2023-04-02T01:51:33.000Z,0
2023-04-02T01:52:50.000Z,0
2023-04-02T01:54:06.000Z,0
2023-04-02T01:55:21.000Z,0
2023-04-02T01:56:37.000Z,0
2023-04-02T01:57:53.000Z,0
2023-04-02T01:59:09.000Z,0
2023-04-02T02:00:25.000Z,0
2023-04-02T02:01:42.000Z,0
2023-04-02T02:02:58.000Z,0
2023-04-02T02:04:14.000Z,0
2023-04-02T02:05:30.000Z,0
2023-04-02T02:06:46.000Z,0
2023-04-02T02:08:02.000Z,0
2023-04-02T02:09:18.000Z,0
2023-04-02T02:10:34.000Z,0
2023-04-02T02:11:50.000Z,0
2023-04-02T02:13:05.000Z,0
2023-04-02T02:14:20.000Z,0
2023-04-02T02:15:35.000Z,0
2023-04-02T02:16:51.000Z,0
2023-04-02T02:18:07.000Z,0
2023-04-02T02:19:23.000Z,0
2023-04-02T02:20:40.000Z,0
2023-04-02T02:21:56.000Z,0
2023-04-02T02:23:12.000Z,0
2023-04-02T02:24:28.000Z,0
2023-04-02T02:25:44.000Z,0
2023-04-02T02:27:00.000Z,0
2023-04-02T02:28:16.000Z,0
2023-04-02T02:29:33.000Z,0
2023-04-02T02:30:49.000Z,0
2023-04-02T02:32:04.000Z,0
2023-04-02T02:33:20.000Z,0
2023-04-02T02:34:36.000Z,0
2023-04-02T02:35:52.000Z,0
2023-04-02T02:37:08.000Z,0
2023-04-02T02:38:25.000Z,0
2023-04-02T02:39:41.000Z,0
2023-04-02T02:40:57.000Z,0
2023-04-02T02:42:13.000Z,0
2023-04-02T02:43:29.000Z,0
2023-04-02T02:44:45.000Z,0
2023-04-02T02:46:01.000Z,0
2023-04-02T02:47:17.000Z,0
2023-04-02T02:48:33.000Z,0
2023-04-02T02:49:49.000Z,0
2023-04-02T02:51:05.000Z,0
2023-04-02T02:52:21.000Z,0
2023-04-02T02:53:37.000Z,0
2023-04-02T02:54:53.000Z,0
2023-04-02T02:56:09.000Z,0
2023-04-02T02:57:26.000Z,0
2023-04-02T02:58:42.000Z,0
2023-04-02T02:59:58.000Z,0
2023-04-02T03:01:14.000Z,0
2023-04-02T03:02:30.000Z,0
2023-04-02T03:03:46.000Z,0
2023-04-02T03:05:01.000Z,0
2023-04-02T03:06:17.000Z,0
2023-04-02T03:07:34.000Z,0
2023-04-02T03:08:50.000Z,0
2023-04-02T03:10:06.000Z,0
2023-04-02T03:11:22.000Z,0
2023-04-02T03:12:38.000Z,0
2023-04-02T03:13:54.000Z,0
2023-04-02T03:15:10.000Z,0
2023-04-02T03:16:27.000Z,0
2023-04-02T03:17:43.000Z,0
2023-04-02T03:18:59.000Z,0
2023-04-02T03:20:15.000Z,0
2023-04-02T03:21:30.000Z,0
2023-04-02T03:22:46.000Z,0
2023-04-02T03:24:02.000Z,0
2023-04-02T03:25:17.000Z,0
2023-04-02T03:26:33.000Z,0
2023-04-02T03:27:48.000Z,0
2023-04-02T03:29:03.000Z,0
2023-04-02T03:30:19.000Z,0
2023-04-02T03:31:35.000Z,0
2023-04-02T03:32:51.000Z,0
2023-04-02T03:34:07.000Z,0
2023-04-02T03:35:24.000Z,0
2023-04-02T03:36:40.000Z,0
2023-04-02T03:37:56.000Z,0
2023-04-02T03:39:12.000Z,0
2023-04-02T03:40:28.000Z,0
2023-04-02T03:41:44.000Z,0
2023-04-02T03:43:00.000Z,0
2023-04-02T03:44:17.000Z,0
2023-04-02T03:45:32.000Z,0
2023-04-02T03:46:48.000Z,0
2023-04-02T03:48:04.000Z,0
2023-04-02T03:49:20.000Z,0
2023-04-02T03:50:36.000Z,0
2023-04-02T03:51:52.000Z,0
2023-04-02T03:53:08.000Z,0
2023-04-02T03:54:24.000Z,0
2023-04-02T03:55:39.000Z,0
2023-04-02T03:56:55.000Z,0
2023-04-02T03:58:10.000Z,0
2023-04-02T03:59:25.000Z,0
2023-04-02T04:00:41.000Z,0
2023-04-02T04:01:57.000Z,0
2023-04-02T04:03:14.000Z,0
2023-04-02T04:04:30.000Z,0
2023-04-02T04:05:46.000Z,0
2023-04-02T04:07:02.000Z,0
2023-04-02T04:08:18.000Z,0
2023-04-02T04:09:34.000Z,0
2023-04-02T04:10:50.000Z,0
2023-04-02T04:12:07.000Z,0
2023-04-02T04:13:23.000Z,0
2023-04-02T04:14:39.000Z,0
2023-04-02T04:15:54.000Z,0
2023-04-02T04:17:10.000Z,0
2023-04-02T04:18:26.000Z,0
2023-04-02T04:19:42.000Z,0
2023-04-02T04:20:58.000Z,0
2023-04-02T04:22:15.000Z,0
2023-04-02T04:23:31.000Z,0
2023-04-02T04:24:46.000Z,0
2023-04-02T04:26:01.000Z,0
2023-04-02T04:27:17.000Z,0
2023-04-02T04:28:33.000Z,0
2023-04-02T04:29:49.000Z,0
2023-04-02T04:31:05.000Z,0
2023-04-02T04:32:20.000Z,0
2023-04-02T04:33:36.000Z,0
2023-04-02T04:34:52.000Z,0
2023-04-02T04:37:24.000Z,4
2023-04-02T04:38:40.000Z,4
2023-04-02T04:39:57.000Z,0
2023-04-02T04:41:13.000Z,4
2023-04-02T04:42:29.000Z,8
2023-04-02T04:43:45.000Z,8
2023-04-02T04:45:01.000Z,8
2023-04-02T04:46:17.000Z,8
2023-04-02T04:47:33.000Z,12
2023-04-02T04:48:48.000Z,16
2023-04-02T04:50:05.000Z,20
2023-04-02T04:51:21.000Z,24
2023-04-02T04:52:37.000Z,28
2023-04-02T04:53:53.000Z,36
2023-04-02T04:55:09.000Z,44
2023-04-02T04:56:25.000Z,56
2023-04-02T04:57:41.000Z,64
2023-04-02T04:58:57.000Z,76
2023-04-02T05:00:12.000Z,88
2023-04-02T05:01:27.000Z,104
2023-04-02T05:02:42.000Z,124
2023-04-02T05:03:58.000Z,144
2023-04-02T05:05:14.000Z,164
2023-04-02T05:06:30.000Z,184
2023-04-02T05:07:47.000Z,192
2023-04-02T05:09:03.000Z,200
2023-04-02T05:10:19.000Z,232
2023-04-02T05:11:35.000Z,248
2023-04-02T05:12:51.000Z,284
2023-04-02T05:15:23.000Z,328
2023-04-02T05:16:39.000Z,356
2023-04-02T05:17:56.000Z,392
2023-04-02T05:19:11.000Z,460
2023-04-02T05:20:27.000Z,504
2023-04-02T05:21:43.000Z,552
2023-04-02T05:22:59.000Z,560
2023-04-02T05:24:15.000Z,588
2023-04-02T05:25:31.000Z,640
2023-04-02T05:26:48.000Z,648
2023-04-02T05:28:04.000Z,656
2023-04-02T05:30:36.000Z,720
2023-04-02T05:31:52.000Z,752
2023-04-02T05:33:08.000Z,832
2023-04-02T05:34:24.000Z,880
2023-04-02T05:35:40.000Z,944
2023-04-02T05:36:56.000Z,1044
2023-04-02T05:38:12.000Z,1076
2023-04-02T05:39:28.000Z,1264
2023-04-02T05:40:44.000Z,1288
2023-04-02T05:42:00.000Z,1420
2023-04-02T05:43:16.000Z,1464
2023-04-02T05:44:32.000Z,1560
2023-04-02T05:45:49.000Z,1648
2023-04-02T05:47:05.000Z,1780
2023-04-02T05:48:21.000Z,1824
2023-04-02T05:49:37.000Z,1924
2023-04-02T05:50:53.000Z,2012
2023-04-02T05:52:08.000Z,2244
2023-04-02T05:53:24.000Z,2436
2023-04-02T05:54:41.000Z,2440
2023-04-02T05:55:57.000Z,2560
2023-04-02T05:57:13.000Z,2848
2023-04-02T05:58:29.000Z,2908
2023-04-02T05:59:45.000Z,3028
2023-04-02T06:01:01.000Z,3084
2023-04-02T06:02:17.000Z,3056
2023-04-02T06:03:33.000Z,2952
2023-04-02T06:04:50.000Z,3060
2023-04-02T06:06:06.000Z,3172
2023-04-02T06:07:22.000Z,3284
2023-04-02T06:08:37.000Z,3608
2023-04-02T06:09:53.000Z,3828
2023-04-02T06:11:09.000Z,4012
2023-04-02T06:12:25.000Z,4000
2023-04-02T06:13:42.000Z,3968
2023-04-02T06:14:58.000Z,4236
2023-04-02T06:16:14.000Z,4436
2023-04-02T06:17:30.000Z,5024
2023-04-02T06:18:46.000Z,5812
2023-04-02T06:21:18.000Z,4972
2023-04-02T06:22:34.000Z,5084
2023-04-02T06:23:51.000Z,5180
2023-04-02T06:25:06.000Z,5380
2023-04-02T06:26:22.000Z,5364
2023-04-02T06:27:38.000Z,5504
2023-04-02T06:28:54.000Z,5560
2023-04-02T06:30:10.000Z,5728
2023-04-02T06:31:26.000Z,5872
2023-04-02T06:32:43.000Z,6172
2023-04-02T06:33:59.000Z,6644
2023-04-02T06:35:15.000Z,6620
2023-04-02T06:36:31.000Z,6824
2023-04-02T06:37:47.000Z,6956
2023-04-02T06:39:03.000Z,7012
2023-04-02T06:40:19.000Z,6364
2023-04-02T06:41:34.000Z,6320
2023-04-02T06:42:51.000Z,6956
2023-04-02T06:44:07.000Z,7176
2023-04-02T06:45:23.000Z,7528
2023-04-02T06:46:39.000Z,7604
2023-04-02T06:47:55.000Z,7852
2023-04-02T06:49:11.000Z,7924
2023-04-02T06:50:27.000Z,7924
2023-04-02T06:51:44.000Z,7852
2023-04-02T06:53:00.000Z,7936
2023-04-02T06:54:16.000Z,7868
2023-04-02T06:55:32.000Z,7780
2023-04-02T06:56:48.000Z,7608
2023-04-02T06:58:03.000Z,7692
2023-04-02T06:59:19.000Z,7560
2023-04-02T07:00:35.000Z,7520
2023-04-02T07:01:52.000Z,6760
2023-04-02T07:03:07.000Z,6632
2023-04-02T07:04:22.000Z,6552
2023-04-02T07:05:38.000Z,5700
2023-04-02T07:06:54.000Z,5408
2023-04-02T07:08:09.000Z,5040
2023-04-02T07:09:24.000Z,5024
2023-04-02T07:10:41.000Z,5108
2023-04-02T07:11:57.000Z,5812
2023-04-02T07:13:13.000Z,6352
2023-04-02T07:14:29.000Z,6060
2023-04-02T07:15:45.000Z,5824
2023-04-02T07:17:01.000Z,5652
2023-04-02T07:18:17.000Z,4780
2023-04-02T07:19:34.000Z,5024
2023-04-02T07:20:50.000Z,5472
2023-04-02T07:22:06.000Z,5488
2023-04-02T07:23:22.000Z,5564
2023-04-02T07:24:38.000Z,5464
2023-04-02T07:25:53.000Z,5556
2023-04-02T07:27:09.000Z,6036
2023-04-02T07:28:25.000Z,6468
2023-04-02T07:29:42.000Z,6604
2023-04-02T07:30:58.000Z,6508
2023-04-02T07:32:14.000Z,6688
2023-04-02T07:33:30.000Z,6372
2023-04-02T07:34:45.000Z,6052
2023-04-02T07:36:00.000Z,5824
2023-04-02T07:37:16.000Z,6716
2023-04-02T07:38:32.000Z,7084
2023-04-02T07:39:47.000Z,7400
2023-04-02T07:41:03.000Z,7688
2023-04-02T07:42:19.000Z,8156
2023-04-02T07:43:35.000Z,8716
2023-04-02T07:44:51.000Z,9236
2023-04-02T07:46:07.000Z,9176
2023-04-02T07:47:24.000Z,9360
2023-04-02T07:48:40.000Z,9868
2023-04-02T07:49:56.000Z,10080
2023-04-02T07:51:12.000Z,10280
2023-04-02T07:52:28.000Z,10568
2023-04-02T07:53:44.000Z,10900
2023-04-02T07:55:00.000Z,11236
2023-04-02T07:56:15.000Z,11512
2023-04-02T07:57:32.000Z,11724
2023-04-02T07:58:48.000Z,11812
2023-04-02T08:00:04.000Z,11948
2023-04-02T08:01:20.000Z,11908
2023-04-02T08:02:36.000Z,11800
2023-04-02T08:03:52.000Z,11664
2023-04-02T08:05:07.000Z,11480
2023-04-02T08:06:23.000Z,11720
2023-04-02T08:07:39.000Z,12384
2023-04-02T08:10:10.000Z,13176
2023-04-02T08:11:25.000Z,13712
2023-04-02T08:12:40.000Z,13796
2023-04-02T08:13:56.000Z,13492
2023-04-02T08:15:13.000Z,13020
2023-04-02T08:16:29.000Z,12556
2023-04-02T08:17:45.000Z,12464
2023-04-02T08:19:01.000Z,12720
2023-04-02T08:20:17.000Z,12584
2023-04-02T08:21:33.000Z,12608
2023-04-02T08:22:49.000Z,12268
2023-04-02T08:24:05.000Z,12704
2023-04-02T08:25:22.000Z,12964
2023-04-02T08:26:38.000Z,13240
2023-04-02T08:27:54.000Z,13216
2023-04-02T08:29:09.000Z,12968
2023-04-02T08:30:25.000Z,12868
2023-04-02T08:31:41.000Z,13208
2023-04-02T08:32:57.000Z,13556
2023-04-02T08:34:14.000Z,12948
2023-04-02T08:35:30.000Z,13892
2023-04-02T08:36:46.000Z,14900
2023-04-02T08:38:02.000Z,15992
2023-04-02T08:39:18.000Z,17056
2023-04-02T08:40:34.000Z,17856
2023-04-02T08:41:50.000Z,18656
2023-04-02T08:43:06.000Z,17632
2023-04-02T08:44:23.000Z,14964
2023-04-02T08:45:38.000Z,13296
2023-04-02T08:48:10.000Z,12408
2023-04-02T08:49:26.000Z,11144
2023-04-02T08:50:42.000Z,10188
2023-04-02T08:51:58.000Z,10944
2023-04-02T08:53:15.000Z,13484
2023-04-02T08:54:31.000Z,19136
2023-04-02T08:55:47.000Z,19872
2023-04-02T08:57:02.000Z,17472
2023-04-02T08:58:17.000Z,19968
2023-04-02T08:59:33.000Z,16004
2023-04-02T09:00:49.000Z,18752
2023-04-02T09:03:21.000Z,19552
2023-04-02T09:04:36.000Z,17664
2023-04-02T09:05:51.000Z,15540
2023-04-02T09:07:07.000Z,15016
2023-04-02T09:08:23.000Z,14648
2023-04-02T09:10:56.000Z,18240
2023-04-02T09:12:12.000Z,18496
2023-04-02T09:13:28.000Z,18976
2023-04-02T09:14:44.000Z,18656
2023-04-02T09:16:00.000Z,18112
2023-04-02T09:17:16.000Z,17408
2023-04-02T09:18:32.000Z,15252
2023-04-02T09:19:48.000Z,13136
2023-04-02T09:21:05.000Z,11820
2023-04-02T09:22:20.000Z,10956
2023-04-02T09:23:36.000Z,10644
2023-04-02T09:26:08.000Z,9648
2023-04-02T09:27:23.000Z,9408
2023-04-02T09:28:38.000Z,8932
2023-04-02T09:29:55.000Z,8312
2023-04-02T09:31:11.000Z,8040
2023-04-02T09:32:27.000Z,7984
2023-04-02T09:33:43.000Z,8256
2023-04-02T09:34:59.000Z,9064
2023-04-02T09:36:15.000Z,10176
2023-04-02T09:37:31.000Z,11156
2023-04-02T09:38:47.000Z,11688
2023-04-02T09:40:04.000Z,12092
2023-04-02T09:41:19.000Z,12884
2023-04-02T09:42:34.000Z,12396
2023-04-02T09:43:50.000Z,11836
2023-04-02T09:45:06.000Z,11368
2023-04-02T09:46:22.000Z,11236
2023-04-02T09:47:38.000Z,11392
2023-04-02T09:48:55.000Z,11692
2023-04-02T09:50:11.000Z,11992
2023-04-02T09:51:27.000Z,12376
2023-04-02T09:52:43.000Z,13200
2023-04-02T09:53:59.000Z,14124
2023-04-02T09:55:15.000Z,15036
2023-04-02T09:56:31.000Z,16072
2023-04-02T09:57:47.000Z,17600
2023-04-02T09:59:03.000Z,19968
2023-04-02T10:00:19.000Z,23424
2023-04-02T10:01:35.000Z,25856
2023-04-02T10:02:51.000Z,32064
2023-04-02T10:04:07.000Z,39712
2023-04-02T10:05:23.000Z,30624
2023-04-02T10:06:39.000Z,27712
2023-04-02T10:07:55.000Z,24224
2023-04-02T10:09:10.000Z,22656
2023-04-02T10:10:26.000Z,21760
2023-04-02T10:11:42.000Z,20768
2023-04-02T10:12:57.000Z,19616
2023-04-02T10:14:13.000Z,18240
2023-04-02T10:15:28.000Z,17120
2023-04-02T10:16:45.000Z,15816
2023-04-02T10:18:01.000Z,14844
2023-04-02T10:19:17.000Z,13892
2023-04-02T10:20:33.000Z,12884
2023-04-02T10:21:49.000Z,11752
2023-04-02T10:23:05.000Z,10760
2023-04-02T10:24:21.000Z,9972
2023-04-02T10:25:37.000Z,9432
2023-04-02T10:26:54.000Z,8872
2023-04-02T10:28:10.000Z,8156
2023-04-02T10:29:26.000Z,7480
2023-04-02T10:30:42.000Z,6764
2023-04-02T10:31:57.000Z,6236
2023-04-02T10:33:13.000Z,5744
2023-04-02T10:34:29.000Z,5328
2023-04-02T10:37:02.000Z,4632
2023-04-02T10:38:18.000Z,4420
2023-04-02T10:39:34.000Z,4224
2023-04-02T10:42:06.000Z,4012
2023-04-02T10:43:22.000Z,3848
2023-04-02T10:44:38.000Z,3652
2023-04-02T10:45:55.000Z,3560
2023-04-02T10:47:11.000Z,3568
2023-04-02T10:48:26.000Z,3564
2023-04-02T10:49:42.000Z,3488
2023-04-02T10:50:58.000Z,3352
2023-04-02T10:52:14.000Z,3232
2023-04-02T10:53:30.000Z,3100
2023-04-02T10:54:47.000Z,2980
2023-04-02T10:56:03.000Z,2852
2023-04-02T10:57:19.000Z,2680
2023-04-02T10:58:35.000Z,2548
2023-04-02T10:59:51.000Z,2472
2023-04-02T11:01:07.000Z,2424
2023-04-02T11:02:23.000Z,2368
2023-04-02T11:03:39.000Z,2328
2023-04-02T11:04:55.000Z,2292
2023-04-02T11:06:11.000Z,2268
2023-04-02T11:07:27.400Z,2260
2023-04-02T11:08:43.000Z,2232
2023-04-02T11:09:59.000Z,2184
2023-04-02T11:11:15.000Z,2184
2023-04-02T11:12:31.000Z,2212
2023-04-02T11:13:48.000Z,2264
2023-04-02T11:15:04.000Z,2332
2023-04-02T11:16:19.000Z,2420
2023-04-02T11:17:34.000Z,2508
2023-04-02T11:18:50.000Z,2624
2023-04-02T11:20:06.000Z,2748
2023-04-02T11:21:21.000Z,2852
2023-04-02T11:22:37.000Z,2956
2023-04-02T11:23:53.000Z,3040
2023-04-02T11:25:09.000Z,3096
2023-04-02T11:26:25.000Z,3132
2023-04-02T11:27:41.000Z,3124
2023-04-02T11:28:57.000Z,3084
2023-04-02T11:30:13.000Z,3052
2023-04-02T11:31:29.000Z,3016
2023-04-02T11:32:46.000Z,2980
2023-04-02T11:34:02.000Z,2952
2023-04-02T11:35:18.000Z,2908
2023-04-02T11:36:34.000Z,2844
2023-04-02T11:37:50.000Z,2784
2023-04-02T11:39:05.000Z,2720
2023-04-02T11:40:21.000Z,2656
2023-04-02T11:41:38.000Z,2592
2023-04-02T11:42:54.000Z,2564
2023-04-02T11:44:10.000Z,2564
2023-04-02T11:45:26.000Z,2564
2023-04-02T11:46:42.000Z,2540
2023-04-02T11:47:57.000Z,2532
2023-04-02T11:49:12.000Z,2544
2023-04-02T11:50:29.000Z,2564
2023-04-02T11:51:44.000Z,2588
2023-04-02T11:52:59.000Z,2604
2023-04-02T11:54:15.000Z,2616
2023-04-02T11:55:31.000Z,2636
2023-04-02T11:56:47.000Z,2648
2023-04-02T11:58:03.000Z,2668
2023-04-02T11:59:20.000Z,2680
2023-04-02T12:00:36.000Z,2700
2023-04-02T12:01:52.000Z,2736
2023-04-02T12:03:08.000Z,2784
2023-04-02T12:04:24.000Z,2836
2023-04-02T12:05:40.000Z,2928
2023-04-02T12:06:56.000Z,3052
2023-04-02T12:08:12.000Z,3220
2023-04-02T12:09:28.000Z,3392
2023-04-02T12:10:44.000Z,3620
2023-04-02T12:12:00.000Z,3928
2023-04-02T12:13:16.000Z,4332
2023-04-02T12:14:32.000Z,4816
2023-04-02T12:15:48.000Z,5416
2023-04-02T12:17:04.000Z,6132
2023-04-02T12:18:20.000Z,6864
2023-04-02T12:19:35.000Z,7492
2023-04-02T12:20:51.000Z,7976
2023-04-02T12:22:07.000Z,8300
2023-04-02T12:23:23.000Z,8496
2023-04-02T12:24:38.000Z,8600
2023-04-02T12:25:53.000Z,8656
2023-04-02T12:27:10.000Z,8692
2023-04-02T12:28:26.000Z,8780
2023-04-02T12:29:42.000Z,8916
2023-04-02T12:30:58.000Z,9064
2023-04-02T12:32:14.000Z,9172
2023-04-02T12:33:30.000Z,9236
2023-04-02T12:34:46.000Z,9264
2023-04-02T12:36:02.000Z,9268
2023-04-02T12:37:19.000Z,9268
2023-04-02T12:38:35.000Z,9236
2023-04-02T12:39:51.000Z,9200
2023-04-02T12:41:07.000Z,9216
2023-04-02T12:42:22.000Z,9260
2023-04-02T12:43:38.000Z,9324
2023-04-02T12:44:54.000Z,9392
2023-04-02T12:46:11.000Z,9496
2023-04-02T12:47:27.000Z,9716
2023-04-02T12:48:43.000Z,10052
2023-04-02T12:49:59.000Z,10508
2023-04-02T12:51:14.000Z,11072
2023-04-02T12:52:29.000Z,11616
2023-04-02T12:53:45.000Z,12048
2023-04-02T12:55:01.000Z,12400
2023-04-02T12:56:16.000Z,12724
2023-04-02T12:57:32.000Z,13112
2023-04-02T12:58:48.000Z,13624
2023-04-02T13:00:04.000Z,14268
2023-04-02T13:01:20.000Z,14884
2023-04-02T13:02:36.000Z,15316
2023-04-02T13:03:52.000Z,15468
2023-04-02T13:05:09.000Z,15716
2023-04-02T13:06:25.000Z,15600
2023-04-02T13:07:41.000Z,15196
2023-04-02T13:08:57.000Z,15112
2023-04-02T13:10:13.000Z,14924
2023-04-02T13:11:29.000Z,14564
2023-04-02T13:12:44.000Z,13960
2023-04-02T13:14:01.000Z,13200
2023-04-02T13:15:17.000Z,12652
2023-04-02T13:16:33.000Z,11844
2023-04-02T13:17:49.000Z,11328
2023-04-02T13:19:05.000Z,11400
2023-04-02T13:20:21.000Z,12124
2023-04-02T13:21:37.000Z,12724
2023-04-02T13:22:52.000Z,12852
2023-04-02T13:24:08.000Z,12676
2023-04-02T13:25:24.000Z,12744
2023-04-02T13:26:40.000Z,12768
2023-04-02T13:27:55.000Z,12040
2023-04-02T13:29:10.000Z,13336
2023-04-02T13:30:26.000Z,16084
2023-04-02T13:31:42.000Z,15380
2023-04-02T13:32:59.000Z,13732
2023-04-02T13:34:15.000Z,12856
2023-04-02T13:35:31.000Z,12696
2023-04-02T13:36:47.000Z,12980
2023-04-02T13:38:03.000Z,13156
2023-04-02T13:39:19.000Z,13432
2023-04-02T13:40:35.000Z,13556
2023-04-02T13:41:52.000Z,13716
2023-04-02T13:43:08.000Z,13824
2023-04-02T13:44:24.000Z,13844
2023-04-02T13:45:39.000Z,13732
2023-04-02T13:46:55.000Z,13552
2023-04-02T13:48:11.000Z,13324
2023-04-02T13:49:27.000Z,13424
2023-04-02T13:52:00.000Z,12500
2023-04-02T13:53:16.000Z,12052
2023-04-02T13:54:32.000Z,11456
2023-04-02T13:55:48.000Z,10768
2023-04-02T13:57:04.000Z,9968
2023-04-02T13:58:20.000Z,9036
2023-04-02T13:59:36.000Z,8252
2023-04-02T14:00:52.000Z,7532
2023-04-02T14:02:07.000Z,6892
2023-04-02T14:03:23.000Z,6468
2023-04-02T14:04:39.000Z,6380
2023-04-02T14:07:10.000Z,5540
2023-04-02T14:08:25.000Z,5392
2023-04-02T14:09:41.000Z,5384
2023-04-02T14:10:57.000Z,5372
2023-04-02T14:12:13.000Z,5500
2023-04-02T14:13:29.000Z,5760
2023-04-02T14:14:45.000Z,6244
2023-04-02T14:16:01.000Z,6704
2023-04-02T14:17:17.000Z,6920
2023-04-02T14:18:33.000Z,6920
2023-04-02T14:19:50.000Z,7088
2023-04-02T14:21:06.000Z,7552
2023-04-02T14:22:22.000Z,8092
2023-04-02T14:23:38.000Z,8664
2023-04-02T14:24:54.000Z,9324
2023-04-02T14:26:09.000Z,10116
2023-04-02T14:27:25.000Z,10724
2023-04-02T14:28:42.000Z,11244
2023-04-02T14:29:58.000Z,11520
2023-04-02T14:31:14.000Z,11488
2023-04-02T14:32:30.000Z,11336
2023-04-02T14:33:46.000Z,11160
2023-04-02T14:35:02.000Z,10992
2023-04-02T14:36:18.000Z,10792
2023-04-02T14:37:34.000Z,10584
2023-04-02T14:38:50.000Z,10312
2023-04-02T14:40:05.000Z,9996
2023-04-02T14:41:21.000Z,9616
2023-04-02T14:42:37.000Z,9468
2023-04-02T14:43:53.000Z,9536
2023-04-02T14:45:09.000Z,9460
2023-04-02T14:46:24.000Z,9088
2023-04-02T14:47:40.000Z,8924
2023-04-02T14:48:56.000Z,9016
2023-04-02T14:50:12.000Z,9276
2023-04-02T14:51:28.000Z,8872
2023-04-02T14:52:44.000Z,8508
2023-04-02T14:54:00.000Z,8688
2023-04-02T14:55:16.000Z,9188
2023-04-02T14:56:33.000Z,9460
2023-04-02T14:57:49.000Z,9008
2023-04-02T14:59:05.000Z,8504
2023-04-02T15:00:21.000Z,8252
2023-04-02T15:01:37.000Z,8072
2023-04-02T15:02:53.000Z,8108
2023-04-02T15:04:08.000Z,8420
2023-04-02T15:05:24.000Z,8872
2023-04-02T15:06:41.000Z,9460
2023-04-02T15:07:57.000Z,10200
2023-04-02T15:09:13.000Z,10516
2023-04-02T15:10:29.000Z,10832
2023-04-02T15:11:45.000Z,11004
2023-04-02T15:13:01.000Z,11072
2023-04-02T15:14:17.000Z,10944
2023-04-02T15:15:34.000Z,10536
2023-04-02T15:16:50.000Z,9708
2023-04-02T15:18:06.000Z,8764
2023-04-02T15:19:22.000Z,8236
2023-04-02T15:20:37.000Z,8076
2023-04-02T15:21:52.000Z,7696
2023-04-02T15:23:08.000Z,7220
2023-04-02T15:24:24.000Z,6844
2023-04-02T15:25:42.000Z,6564
2023-04-02T15:26:57.000Z,6396
2023-04-02T15:28:14.000Z,6028
2023-04-02T15:29:30.000Z,5592
2023-04-02T15:30:46.000Z,5152
2023-04-02T15:32:02.000Z,4668
2023-04-02T15:33:18.000Z,4236
2023-04-02T15:34:35.000Z,3956
2023-04-02T15:35:51.000Z,3968
2023-04-02T15:37:06.000Z,3948
2023-04-02T15:38:22.000Z,3876
2023-04-02T15:39:38.000Z,3704
2023-04-02T15:40:54.000Z,3676
2023-04-02T15:42:09.000Z,3748
2023-04-02T15:43:24.000Z,3640
2023-04-02T15:44:41.000Z,3448
2023-04-02T15:45:57.000Z,3544
2023-04-02T15:47:13.000Z,3812
2023-04-02T15:48:29.000Z,4048
2023-04-02T15:49:44.000Z,4004
2023-04-02T15:50:59.000Z,3832
2023-04-02T15:52:15.000Z,3660
2023-04-02T15:53:32.000Z,3592
2023-04-02T15:54:48.000Z,3580
2023-04-02T15:56:04.000Z,3524
2023-04-02T15:57:20.000Z,3448
2023-04-02T15:58:36.000Z,3400
2023-04-02T15:59:52.000Z,3428
2023-04-02T16:01:08.000Z,3536
2023-04-02T16:02:25.000Z,3700
2023-04-02T16:03:41.000Z,3744
2023-04-02T16:04:57.000Z,3496
2023-04-02T16:06:13.000Z,3180
2023-04-02T16:08:44.000Z,2976
2023-04-02T16:10:00.000Z,3124
2023-04-02T16:11:16.000Z,3312
2023-04-02T16:12:33.000Z,3500
2023-04-02T16:13:49.000Z,3712
2023-04-02T16:15:05.000Z,4004
2023-04-02T16:16:21.000Z,4316
2023-04-02T16:17:36.000Z,4584
2023-04-02T16:18:51.000Z,4824
2023-04-02T16:20:06.000Z,5236
2023-04-02T16:21:22.000Z,5580
2023-04-02T16:22:38.000Z,5652
2023-04-02T16:23:54.000Z,5444
2023-04-02T16:25:10.000Z,5256
2023-04-02T16:26:26.000Z,5052
2023-04-02T16:27:42.000Z,4692
2023-04-02T16:28:58.000Z,4228
2023-04-02T16:30:15.000Z,4128
2023-04-02T16:31:31.000Z,3952
2023-04-02T16:32:47.000Z,3772
2023-04-02T16:34:03.000Z,3644
2023-04-02T16:35:19.000Z,3480
2023-04-02T16:36:35.000Z,3200
2023-04-02T16:37:50.000Z,2860
2023-04-02T16:39:06.000Z,2500
2023-04-02T16:40:22.000Z,2168
2023-04-02T16:41:38.000Z,1876
2023-04-02T16:42:54.000Z,1676
2023-04-02T16:44:10.000Z,1584
2023-04-02T16:45:26.000Z,1576
2023-04-02T16:46:42.000Z,1592
2023-04-02T16:47:58.000Z,1600
2023-04-02T16:49:15.000Z,1616
2023-04-02T16:50:31.000Z,1652
2023-04-02T16:51:47.000Z,1752
2023-04-02T16:53:03.000Z,1924
2023-04-02T16:54:19.000Z,2192
2023-04-02T16:56:50.000Z,2880
2023-04-02T16:58:06.000Z,3020
2023-04-02T16:59:23.000Z,2796
2023-04-02T17:00:39.000Z,2300
2023-04-02T17:01:55.000Z,1700
2023-04-02T17:03:11.000Z,1252
2023-04-02T17:04:27.000Z,1028
2023-04-02T17:05:43.000Z,916
2023-04-02T17:06:59.000Z,800
2023-04-02T17:08:16.000Z,624
2023-04-02T17:09:32.000Z,476
2023-04-02T17:10:48.000Z,392
2023-04-02T17:12:04.000Z,440
2023-04-02T17:13:19.000Z,448
2023-04-02T17:14:35.000Z,412
2023-04-02T17:15:51.000Z,356
2023-04-02T17:17:07.000Z,312
2023-04-02T17:18:24.000Z,272
2023-04-02T17:19:40.000Z,236
2023-04-02T17:20:56.000Z,204
2023-04-02T17:22:12.000Z,176
2023-04-02T17:23:28.000Z,148
2023-04-02T17:24:44.000Z,124
2023-04-02T17:26:00.000Z,104
2023-04-02T17:27:17.000Z,92
2023-04-02T17:28:32.000Z,80
2023-04-02T17:29:47.000Z,68
2023-04-02T17:31:03.000Z,64
2023-04-02T17:32:19.000Z,60
2023-04-02T17:33:34.000Z,60